Řízení letového provozu České republiky
Letiste: LKNA Aktualizace: 25.07.2016 19:08:07  UTC
 METAR LKNA 25.07. 18:00 ...
METAR LKNA 251800Z 21006KT CAVOK 25/18 Q1018 NOSIG=
 TAF LKNA 25.07. 17:00 ...
TAF LKNA 251700Z 2518/2618 36004KT 9999 BKN040      TEMPO 2518/2522 SHRA SCT035TCU      BECMG 2604/2606 4000 BR NSC      BECMG 2607/2609 36008KT 9999 BKN040      TEMPO 2610/2612 8000 SHRA SCT035TCU=